Latest Weather Observations for Sydney Airport

IDN60801

Issued at 6:05 pm EST Saturday 20 September 2014 (issued every 30 minutes, with the page automatically refreshed every 10 minutes)

About weather observations | Map of weather stations | Latest weather observations for NSW | Other Formats
Station Details ID: 066037 Name: SYDNEY AIRPORT AMO Lat: -33.95 Lon: 151.17 Height: 6.0 m
Data from the previous 72 hours. | See also: Recent months at Sydney Airport
Date/Time
EST
Temp
°C
App
Temp
°C
Dew
Point
Rel
Hum
%
Delta-T
°C
Wind Press
QNH
hPa
Press
MSL
hPa
Rain
since 9 am
mm
Dir
 
Spd
km/h
Gust
km/h
Spd
kts
Gust
kts
20/06:00pm 15.8 10.3 7.5 58 4.1 SSE 26 33 14 18 1025.4 1025.4 0.0
20/05:30pm 16.2 10.1 6.5 52 4.7 SSE 28 33 15 18 1024.9 1024.9 0.0
20/05:00pm 16.3 10.1 6.2 51 4.9 SSE 28 33 15 18 1024.5 1024.5 0.0
20/04:30pm 16.6 10.3 5.5 48 5.3 S 28 33 15 18 1024.1 1024.1 0.0
20/04:00pm 16.4 10.8 7.3 55 4.5 SSE 26 32 14 17 1024.0 1024.0 0.0
20/03:30pm 16.7 11.0 6.5 51 5.0 SSE 26 32 14 17 1023.7 1023.7 0.0
20/03:00pm 17.2 11.3 5.8 47 5.5 SSE 26 35 14 19 1023.8 1023.8 0.0
20/02:30pm 16.6 10.8 7.8 56 4.4 S 28 33 15 18 1023.8 1023.8 0.0
20/02:00pm 17.2 11.4 6.1 48 5.4 S 26 33 14 18 1023.7 1023.7 0.0
20/01:30pm 16.7 10.5 7.7 55 4.5 S 30 37 16 20 1023.9 1023.9 0.0
20/01:00pm 16.8 10.7 6.8 51 4.9 SSE 28 37 15 20 1024.0 1024.0 0.0
20/12:30pm 17.0 11.0 6.9 51 5.0 S 28 35 15 19 1024.0 1024.0 0.0
20/12:00pm 16.6 10.1 6.6 51 4.9 S 30 35 16 19 1024.2 1024.2 0.0
20/11:30am 16.8 10.5 7.3 53 4.7 S 30 35 16 19 1024.4 1024.4 0.0
20/11:00am 16.5 9.9 7.9 57 4.3 S 32 37 17 20 1024.6 1024.6 0.0
20/10:50am 17.0 11.2 8.1 55 4.5 S 28 46 15 25 1024.6 1024.6 0.0
20/10:30am 16.7 10.3 8.4 58 4.2 S 32 41 17 22 1024.6 1024.6 0.0
20/10:00am 16.7 10.5 9.3 61 3.8 S 32 39 17 21 1024.6 1024.6 0.0
20/09:30am 16.5 11.0 9.1 61 3.8 S 28 33 15 18 1024.7 1024.7 0.0
20/08:30am 14.5 11.7 5.3 54 4.3 W 9 13 5 7 1024.2 1024.2 0.0
20/08:00am 13.8 10.9 4.7 54 4.2 NW 9 11 5 6 1023.9 1023.9 0.0
20/07:30am 12.3 9.3 4.0 57 3.7 NW 9 11 5 6 1023.7 1023.7 0.0
20/07:00am 11.1 7.3 4.1 62 3.1 NW 13 17 7 9 1023.3 1023.3 0.0
20/06:30am 9.8 6.1 4.4 69 2.4 NW 13 19 7 10 1022.9 1022.9 0.0
20/06:00am 9.1 5.4 4.3 72 2.1 NW 13 15 7 8 1022.3 1022.3 0.0
20/05:30am 9.1 5.7 4.1 71 2.2 NNW 11 13 6 7 1021.9 1021.9 0.0
20/05:00am 9.0 5.3 4.7 74 1.9 NW 13 15 7 8 1021.5 1021.5 0.0
20/04:30am 8.8 5.4 4.2 73 2.0 NW 11 13 6 7 1021.1 1021.1 0.0
20/04:00am 9.4 6.4 4.2 70 2.3 NW 9 11 5 6 1020.8 1020.8 0.0
20/03:30am 10.0 6.6 3.8 65 2.7 NNW 11 13 6 7 1020.8 1020.8 0.0
20/03:00am 9.7 5.9 4.0 67 2.5 NNW 13 13 7 7 1020.9 1020.9 0.0
20/02:30am 9.9 6.1 4.0 67 2.6 NNW 13 15 7 8 1021.1 1021.1 0.0
20/02:00am 10.7 7.3 3.9 63 3.0 NNW 11 13 6 7 1021.1 1021.1 0.0
20/01:30am 10.6 6.9 4.3 65 2.8 NNW 13 15 7 8 1021.5 1021.5 0.0
20/01:00am 11.7 8.4 4.4 61 3.3 NNW 11 11 6 6 1021.6 1021.6 0.0
20/12:30am 11.5 7.4 4.6 62 3.1 N 15 15 8 8 1021.7 1021.7 0.0
20/12:00am 12.2 9.4 5.2 62 3.2 NNW 9 11 5 6 1021.7 1021.7 0.0
 
Date/Time
EST
Temp
°C
App
Temp
°C
Dew
Point
Rel
Hum
%
Delta-T
°C
Wind Press
QNH
hPa
Press
MSL
hPa
Rain
since 9 am
mm
Dir
 
Spd
km/h
Gust
km/h
Spd
kts
Gust
kts
19/11:30pm 12.3 10.2 5.6 63 3.1 W 6 7 3 4 1021.9 1021.9 0.0
19/11:00pm 13.3 10.6 5.6 59 3.6 WNW 9 9 5 5 1021.9 1021.9 0.0
19/10:30pm 13.5 10.7 5.1 57 3.9 WSW 9 11 5 6 1022.0 1022.0 0.0
19/10:00pm 12.9 9.9 5.9 62 3.3 WSW 11 13 6 7 1022.1 1022.1 0.0
19/09:30pm 13.8 10.9 6.7 62 3.4 S 11 15 6 8 1021.9 1021.9 0.0
19/09:00pm 13.8 10.3 5.5 57 3.9 SE 13 15 7 8 1021.8 1021.8 0.0
19/08:30pm 14.3 10.5 5.6 56 4.1 SE 15 17 8 9 1021.5 1021.5 0.0
19/08:00pm 14.6 11.4 5.2 53 4.4 SE 11 13 6 7 1021.4 1021.4 0.0
19/07:30pm 14.9 11.6 4.5 49 4.8 ESE 11 13 6 7 1021.1 1021.1 0.0
19/07:00pm 14.8 10.8 4.9 51 4.6 SE 15 17 8 9 1020.7 1020.7 0.0
19/06:30pm 15.1 10.9 5.6 53 4.5 SSE 17 20 9 11 1020.4 1020.4 0.0
19/06:00pm 15.5 11.1 6.4 54 4.4 SSE 19 24 10 13 1020.0 1020.0 0.0
19/05:30pm 16.0 11.3 5.0 48 5.2 SE 19 24 10 13 1019.6 1019.6 0.0
19/05:00pm 16.4 12.1 3.0 40 6.1 ESE 15 20 8 11 1019.3 1019.3 0.0
19/04:30pm 16.9 12.1 2.8 39 6.4 ESE 17 24 9 13 1018.9 1018.9 0.0
19/04:00pm 17.1 12.4 3.1 39 6.4 ESE 17 24 9 13 1018.8 1018.8 0.0
19/03:30pm 17.8 12.6 3.3 38 6.7 ESE 20 26 11 14 1018.7 1018.7 0.0
19/03:00pm 18.1 12.5 3.2 37 6.9 E 22 26 12 14 1018.6 1018.6 0.0
19/02:30pm 19.0 13.9 2.8 34 7.5 E 19 28 10 15 1018.5 1018.5 0.0
19/02:00pm 19.9 14.6 -4.0 19 9.7 E 15 20 8 11 1018.7 1018.7 0.0
19/01:30pm 19.0 15.2 1.8 31 7.8 SE 11 15 6 8 1019.1 1019.1 0.0
19/01:00pm 19.3 15.0 -1.4 24 8.8 SSE 11 15 6 8 1019.5 1019.5 0.0
19/12:30pm 17.8 13.8 0.7 31 7.5 SE 11 15 6 8 1019.9 1019.9 0.0
19/12:00pm 18.4 14.8 0.3 29 7.9 S 9 15 5 8 1020.4 1020.4 0.0
19/11:30am 17.4 12.9 -0.4 30 7.6 WNW 13 24 7 13 1020.9 1020.9 0.0
19/11:00am 19.0 14.7 1.0 30 8.0 NNW 13 22 7 12 1021.4 1021.4 0.0
19/10:30am 17.6 13.5 2.0 35 7.0 NW 13 30 7 16 1021.7 1021.7 0.0
19/10:00am 17.0 13.4 2.9 39 6.4 WNW 11 19 6 10 1022.1 1022.1 0.0
19/09:30am 16.9 13.3 2.8 39 6.4 WNW 11 13 6 7 1022.1 1022.1 0.0
19/09:00am 15.3 11.7 3.1 44 5.5 NW 11 15 6 8 1022.1 1022.1 0.0
19/08:30am 14.1 10.1 2.8 46 5.0 NW 13 19 7 10 1022.2 1022.2 0.0
19/08:00am 13.0 8.9 2.4 48 4.6 WNW 13 17 7 9 1022.2 1022.2 0.0
19/07:30am 11.3 7.2 2.1 53 3.9 WNW 13 17 7 9 1021.9 1021.9 0.0
19/07:00am 10.2 6.5 2.1 57 3.4 WNW 11 15 6 8 1021.9 1021.9 0.0
19/06:30am 9.4 4.9 2.0 60 3.1 WNW 15 22 8 12 1021.7 1021.7 0.0
19/06:00am 9.3 5.1 1.5 58 3.2 WNW 13 15 7 8 1021.4 1021.4 0.0
19/05:30am 9.5 5.3 1.8 58 3.2 WNW 13 19 7 10 1021.2 1021.2 0.0
19/05:00am 9.1 4.6 1.9 60 3.0 WNW 15 17 8 9 1021.1 1021.1 0.0
19/04:30am 9.2 5.4 2.0 60 3.0 WNW 11 15 6 8 1020.8 1020.8 0.0
19/04:00am 9.9 6.1 1.7 56 3.4 N 11 13 6 7 1020.4 1020.4 0.0
19/03:30am 9.5 5.8 2.1 60 3.1 WNW 11 13 6 7 1020.3 1020.3 0.0
19/03:00am 9.8 5.6 1.9 58 3.3 WNW 13 15 7 8 1020.3 1020.3 0.0
19/02:30am 10.0 6.2 1.6 56 3.5 W 11 15 6 8 1020.4 1020.4 0.0
19/02:00am 10.4 5.4 1.2 53 3.8 WNW 17 19 9 10 1020.7 1020.7 0.0
19/01:30am 10.3 6.1 1.7 55 3.6 W 13 17 7 9 1020.8 1020.8 0.0
19/01:00am 11.1 6.5 1.3 51 4.1 WNW 15 19 8 10 1020.9 1020.9 0.0
19/12:30am 11.7 7.0 1.2 48 4.4 WNW 15 17 8 9 1020.9 1020.9 0.0
19/12:00am 11.9 6.5 1.5 49 4.4 W 19 22 10 12 1021.1 1021.1 0.0
 
Date/Time
EST
Temp
°C
App
Temp
°C
Dew
Point
Rel
Hum
%
Delta-T
°C
Wind Press
QNH
hPa
Press
MSL
hPa
Rain
since 9 am
mm
Dir
 
Spd
km/h
Gust
km/h
Spd
kts
Gust
kts
18/11:30pm 12.1 7.9 1.4 48 4.5 WNW 13 15 7 8 1021.2 1021.2 0.0
18/11:00pm 12.5 7.9 1.4 46 4.7 W 15 17 8 9 1021.3 1021.3 0.0
18/10:30pm 12.6 7.9 0.9 44 4.9 WSW 15 17 8 9 1021.2 1021.2 0.0
18/10:00pm 12.8 7.8 1.5 46 4.8 W 17 19 9 10 1021.3 1021.3 0.0
18/09:30pm 13.3 8.2 1.0 43 5.2 W 17 33 9 18 1021.3 1021.3 0.0
18/09:00pm 13.6 9.0 1.5 43 5.2 W 15 20 8 11 1021.3 1021.3 0.0
18/08:30pm 14.0 8.8 2.4 45 5.1 WSW 19 24 10 13 1021.2 1021.2 0.0
18/08:00pm 14.5 9.8 3.1 46 5.1 SW 17 19 9 10 1020.8 1020.8 0.0
18/07:30pm 15.3 11.5 4.0 47 5.2 S 13 19 7 10 1020.2 1020.2 0.0
18/07:00pm 15.5 10.6 2.2 40 5.9 SSE 17 22 9 12 1019.8 1019.8 0.0
18/06:30pm 15.4 10.7 3.0 43 5.6 SSE 17 20 9 11 1019.5 1019.5 0.0
18/06:00pm 15.4 10.4 1.4 38 6.1 SSE 17 22 9 12 1019.2 1019.2 0.0
18/05:30pm 15.4 10.0 2.7 42 5.7 SE 20 28 11 15 1018.9 1018.9 0.0
18/05:00pm 15.9 9.6 1.5 37 6.3 SSE 24 32 13 17 1018.4 1018.4 0.0
18/04:30pm 16.4 9.6 1.0 35 6.7 SE 26 33 14 18 1018.0 1018.0 0.0
18/04:00pm 16.5 10.4 0.5 34 6.9 SSE 22 30 12 16 1017.7 1017.7 0.0
18/03:30pm 16.5 9.2 -0.2 32 7.1 SSE 28 33 15 18 1017.5 1017.5 0.0
18/03:00pm 16.0 9.1 2.7 41 6.0 S 28 37 15 20 1017.3 1017.3 0.0
18/02:30pm 16.2 9.4 1.1 36 6.6 S 26 32 14 17 1017.1 1017.1 0.0
18/02:00pm 17.6 11.6 1.1 33 7.3 SSE 22 28 12 15 1017.2 1017.2 0.0
18/01:30pm 16.4 10.9 1.7 37 6.5 S 20 28 11 15 1017.4 1017.4 0.0
18/01:00pm 17.2 11.4 -1.5 28 7.8 SSE 19 26 10 14 1017.4 1017.4 0.0
18/12:30pm 16.9 11.1 -0.2 31 7.3 SSE 20 26 11 14 1017.6 1017.6 0.0
18/12:00pm 16.9 11.0 1.5 35 6.8 S 22 30 12 16 1017.8 1017.8 0.0
18/11:30am 17.1 11.0 -2.6 26 8.0 SSE 20 28 11 15 1018.1 1018.1 0.0
18/11:00am 17.0 10.6 -1.9 27 7.8 SSE 22 30 12 16 1018.2 1018.2 0.0
18/10:30am 16.4 10.4 -1.9 28 7.5 S 20 33 11 18 1018.4 1018.4 0.0
18/10:00am 16.0 10.3 -0.4 32 6.9 SW 19 26 10 14 1018.5 1018.5 0.0
18/09:30am 15.5 8.4 -1.6 31 7.0 W 26 32 14 17 1018.5 1018.5 0.0
18/09:00am 15.2 6.8 -2.2 30 7.0 W 32 39 17 21 1018.5 1018.5 0.0
18/08:30am 14.2 5.7 -2.9 30 6.7 WSW 32 39 17 21 1018.5 1018.5 0.0
18/08:00am 13.7 5.8 -1.8 34 6.2 W 30 37 16 20 1018.1 1018.1 0.0
18/07:30am 13.3 8.1 0.0 40 5.5 W 17 20 9 11 1018.0 1018.0 0.0
18/07:00am 12.4 6.7 0.6 44 4.9 WSW 20 33 11 18 1017.9 1017.9 0.0
18/06:30am 11.4 6.5 1.7 51 4.1 WSW 17 32 9 17 1017.5 1017.5 0.0
18/06:00am 11.0 6.4 1.8 53 3.9 W 15 17 8 9 1017.1 1017.1 0.0
18/05:30am 11.6 6.7 1.7 50 4.2 W 17 19 9 10 1016.8 1016.8 0.0
18/05:00am 11.9 6.8 0.5 45 4.7 W 17 20 9 11 1016.5 1016.5 0.0
18/04:30am 12.1 6.7 1.2 47 4.6 WSW 19 30 10 16 1016.3 1016.3 0.0
18/04:00am 12.6 7.0 1.0 45 4.9 WSW 20 26 11 14 1016.1 1016.1 0.0
18/03:30am 13.0 8.3 1.2 44 5.0 WSW 15 19 8 10 1015.8 1015.8 0.0
18/03:00am 14.0 6.2 1.5 42 5.4 WSW 32 39 17 21 1015.7 1015.7 0.0
18/02:30am 13.6 6.9 1.5 43 5.2 SW 26 32 14 17 1015.5 1015.5 0.0
18/02:00am 13.0 7.3 0.3 41 5.3 W 20 28 11 15 1015.2 1015.2 0.0
18/01:30am 13.3 6.8 0.4 41 5.4 W 24 35 13 19 1015.2 1015.2 0.0
18/01:00am 13.5 7.0 0.0 39 5.6 W 24 33 13 18 1015.3 1015.3 0.0
18/12:30am 13.1 8.9 1.4 45 5.0 W 13 17 7 9 1015.3 1015.3 0.0
18/12:00am 13.8 9.5 1.2 42 5.4 WNW 13 19 7 10 1015.1 1015.1 0.0
 
Date/Time
EST
Temp
°C
App
Temp
°C
Dew
Point
Rel
Hum
%
Delta-T
°C
Wind Press
QNH
hPa
Press
MSL
hPa
Rain
since 9 am
mm
Dir
 
Spd
km/h
Gust
km/h
Spd
kts
Gust
kts
17/11:30pm 14.2 10.0 1.8 43 5.4 WNW 13 15 7 8 1015.0 1015.0 0.0
17/11:00pm 14.3 10.2 2.0 43 5.4 W 13 17 7 9 1015.0 1015.0 0.0
17/10:30pm 14.8 9.4 2.4 43 5.5 W 20 28 11 15 1014.8 1014.8 0.0
17/10:00pm 15.3 9.9 2.2 41 5.8 W 20 30 11 16 1014.6 1014.6 0.0
17/09:30pm 15.9 11.0 1.9 39 6.2 WNW 17 22 9 12 1014.4 1014.4 0.0
17/09:00pm 15.7 9.8 1.6 38 6.2 W 22 33 12 18 1014.2 1014.2 0.0
17/08:30pm 15.4 12.0 2.1 40 5.9 W 9 13 5 7 1014.0 1014.0 0.0
17/08:00pm 16.2 11.9 1.1 36 6.6 WSW 13 15 7 8 1013.7 1013.7 0.0
17/07:30pm 16.6 11.7 1.8 37 6.6 WSW 17 24 9 13 1013.5 1013.5 0.0
17/07:00pm 17.6 11.0 -0.3 29 7.7 W 24 32 13 17 1013.2 1013.2 0.0
17/06:30pm 18.1 9.9 -0.9 27 8.1 W 32 43 17 23 1012.6 1012.6 0.0

Other Formats:

Comma delimited format used in spreadsheet applications
http://www.bom.gov.au/fwo/IDN60801/IDN60801.94767.axf

JavaScript Object Notation format (JSON) in row-major order
http://www.bom.gov.au/fwo/IDN60801/IDN60801.94767.json